createdAt,value
2023-03-29T00:02:02.402Z,6.84
2023-03-29T00:04:29.306Z,6.84
2023-03-29T00:06:56.316Z,6.81
2023-03-29T00:09:23.508Z,6.81
2023-03-29T00:11:50.268Z,6.82
2023-03-29T00:14:22.678Z,6.86
2023-03-29T00:16:49.494Z,6.85
2023-03-29T00:19:16.415Z,6.87
2023-03-29T00:21:43.548Z,6.86
2023-03-29T00:24:10.252Z,6.89
2023-03-29T00:26:37.064Z,6.89
2023-03-29T00:29:04.061Z,6.91
2023-03-29T00:31:31.853Z,6.91
2023-03-29T00:33:58.669Z,6.84
2023-03-29T00:36:25.443Z,6.90
2023-03-29T00:38:52.192Z,6.93
2023-03-29T00:41:18.936Z,6.90
2023-03-29T00:44:01.008Z,6.89
2023-03-29T00:46:31.700Z,6.84
2023-03-29T00:49:07.318Z,6.89
2023-03-29T00:51:37.577Z,6.86
2023-03-29T00:54:09.908Z,6.90
2023-03-29T00:56:39.963Z,6.92
2023-03-29T00:59:19.029Z,6.92
2023-03-29T01:01:52.959Z,6.83
2023-03-29T01:04:58.141Z,6.86
2023-03-29T01:07:35.545Z,6.82
2023-03-29T01:10:09.326Z,6.88
2023-03-29T01:12:40.963Z,6.85
2023-03-29T01:15:14.177Z,6.83
2023-03-29T01:17:50.498Z,6.82
2023-03-29T01:20:22.433Z,6.89
2023-03-29T01:23:03.385Z,6.81
2023-03-29T01:25:41.686Z,6.80
2023-03-29T01:28:14.796Z,6.76
2023-03-29T01:30:55.087Z,6.71
2023-03-29T01:33:25.187Z,6.81
2023-03-29T01:36:05.023Z,6.73
2023-03-29T01:38:39.626Z,6.74
2023-03-29T01:41:08.591Z,6.71
2023-03-29T01:43:49.851Z,6.69
2023-03-29T01:46:32.884Z,6.72
2023-03-29T01:49:03.753Z,6.68
2023-03-29T01:51:59.114Z,6.70
2023-03-29T01:54:39.362Z,6.79
2023-03-29T01:57:07.143Z,6.66
2023-03-29T01:59:36.515Z,6.59
2023-03-29T02:02:05.891Z,6.56
2023-03-29T02:04:36.075Z,6.56
2023-03-29T02:07:03.793Z,6.62
2023-03-29T02:09:31.346Z,6.58
2023-03-29T02:12:00.546Z,6.56
2023-03-29T02:14:27.822Z,6.70
2023-03-29T02:16:54.594Z,6.78
2023-03-29T02:19:24.138Z,6.85
2023-03-29T02:22:02.124Z,6.89
2023-03-29T02:24:32.977Z,6.94
2023-03-29T02:27:00.421Z,6.90
2023-03-29T02:29:27.636Z,6.99
2023-03-29T02:32:15.339Z,6.86
2023-03-29T02:34:49.571Z,6.86
2023-03-29T02:37:19.198Z,6.82
2023-03-29T02:39:48.719Z,6.61
2023-03-29T02:42:17.850Z,6.50
2023-03-29T02:44:45.680Z,6.54
2023-03-29T02:47:20.054Z,6.51
2023-03-29T02:49:47.168Z,6.50
2023-03-29T02:52:21.181Z,6.65
2023-03-29T02:54:48.736Z,6.68
2023-03-29T02:57:15.564Z,6.56
2023-03-29T02:59:44.265Z,6.63
2023-03-29T03:02:15.216Z,6.62
2023-03-29T03:04:43.416Z,6.57
2023-03-29T03:07:10.221Z,6.52
2023-03-29T03:09:37.146Z,6.59
2023-03-29T03:12:04.038Z,6.52
2023-03-29T03:14:30.797Z,6.48
2023-03-29T03:17:00.652Z,6.47
2023-03-29T03:19:30.065Z,6.58
2023-03-29T03:21:57.142Z,6.69
2023-03-29T03:24:23.942Z,6.75
2023-03-29T03:26:50.695Z,6.77
2023-03-29T03:29:19.191Z,6.57
2023-03-29T03:32:04.991Z,6.47
2023-03-29T03:34:56.972Z,6.43
2023-03-29T03:37:25.837Z,6.50
2023-03-29T03:39:52.545Z,6.57
2023-03-29T03:42:20.333Z,6.62
2023-03-29T03:44:47.916Z,6.70
2023-03-29T03:47:33.097Z,6.70
2023-03-29T03:50:13.941Z,6.76
2023-03-29T03:52:41.158Z,6.72
2023-03-29T03:55:09.529Z,6.76
2023-03-29T03:57:56.526Z,6.75
2023-03-29T04:00:23.647Z,6.78
2023-03-29T04:03:21.907Z,6.83
2023-03-29T04:05:48.936Z,6.75
2023-03-29T04:08:17.553Z,6.89
2023-03-29T04:11:22.405Z,6.93
2023-03-29T04:13:49.201Z,6.89
2023-03-29T04:16:29.438Z,6.95
2023-03-29T04:19:02.530Z,6.98
2023-03-29T04:21:29.363Z,6.94
2023-03-29T04:23:56.116Z,7.00
2023-03-29T04:26:23.198Z,7.03
2023-03-29T04:29:09.283Z,7.01
2023-03-29T04:31:47.271Z,7.04
2023-03-29T04:34:33.412Z,7.04
2023-03-29T04:37:01.134Z,7.07
2023-03-29T04:39:34.120Z,7.09
2023-03-29T04:42:04.190Z,7.15
2023-03-29T04:44:35.208Z,7.11
2023-03-29T04:47:04.807Z,7.19
2023-03-29T04:50:04.088Z,7.22
2023-03-29T04:52:38.525Z,7.14
2023-03-29T04:55:07.309Z,7.09
2023-03-29T04:57:57.389Z,7.15
2023-03-29T05:00:33.229Z,7.17
2023-03-29T05:03:16.945Z,7.22
2023-03-29T05:05:53.696Z,7.23
2023-03-29T05:08:21.526Z,7.28
2023-03-29T05:11:10.635Z,7.28
2023-03-29T05:13:38.214Z,7.31
2023-03-29T05:16:05.809Z,7.29
2023-03-29T05:18:32.573Z,7.33
2023-03-29T05:20:59.928Z,7.38
2023-03-29T05:23:29.009Z,7.42
2023-03-29T05:26:18.521Z,7.45
2023-03-29T05:28:51.030Z,7.45
2023-03-29T05:31:18.929Z,7.44
2023-03-29T05:33:50.473Z,7.48
2023-03-29T05:36:19.310Z,7.53
2023-03-29T05:38:49.428Z,7.56
2023-03-29T05:41:18.065Z,7.61
2023-03-29T05:44:18.336Z,7.64
2023-03-29T05:46:50.429Z,7.72
2023-03-29T05:49:17.899Z,7.78
2023-03-29T05:52:01.365Z,7.78
2023-03-29T05:54:30.217Z,7.78
2023-03-29T05:56:57.448Z,7.88
2023-03-29T05:59:24.624Z,7.89
2023-03-29T06:01:52.182Z,7.81
2023-03-29T06:04:20.988Z,7.81
2023-03-29T06:07:05.308Z,7.83
2023-03-29T06:09:33.227Z,7.90
2023-03-29T06:12:04.196Z,8.02
2023-03-29T06:14:40.469Z,8.10
2023-03-29T06:17:19.227Z,8.15
2023-03-29T06:19:47.019Z,8.28
2023-03-29T06:22:14.985Z,8.29
2023-03-29T06:24:42.356Z,8.48
2023-03-29T06:27:16.961Z,8.47
2023-03-29T06:29:44.203Z,8.51
2023-03-29T06:32:12.291Z,8.41
2023-03-29T06:34:47.766Z,8.60
2023-03-29T06:37:27.874Z,8.57
2023-03-29T06:40:31.138Z,8.48
2023-03-29T06:42:59.636Z,8.48
2023-03-29T06:45:45.356Z,8.52
2023-03-29T06:48:20.369Z,8.70
2023-03-29T06:50:48.442Z,8.71
2023-03-29T06:53:17.195Z,8.80
2023-03-29T06:55:52.664Z,8.93
2023-03-29T06:58:39.689Z,9.12
2023-03-29T07:01:25.446Z,9.10
2023-03-29T07:04:05.003Z,9.34
2023-03-29T07:06:39.299Z,9.51
2023-03-29T07:09:07.113Z,9.53
2023-03-29T07:11:50.324Z,9.74
2023-03-29T07:14:23.480Z,9.54
2023-03-29T07:16:53.478Z,9.73
2023-03-29T07:19:30.441Z,9.86
2023-03-29T07:22:29.712Z,9.74
2023-03-29T07:25:00.743Z,9.69
2023-03-29T07:27:27.710Z,9.65
2023-03-29T07:29:54.519Z,9.68
2023-03-29T07:32:21.589Z,9.81
2023-03-29T07:35:12.402Z,9.84
2023-03-29T07:37:39.256Z,9.93
2023-03-29T07:40:16.653Z,9.99
2023-03-29T07:42:59.079Z,10.06
2023-03-29T07:45:29.984Z,10.30
2023-03-29T07:48:04.488Z,10.47
2023-03-29T07:50:47.888Z,10.55
2023-03-29T07:53:16.214Z,10.62
2023-03-29T07:55:47.809Z,10.50
2023-03-29T07:58:35.376Z,10.63
2023-03-29T08:01:02.858Z,10.70
2023-03-29T08:03:50.037Z,10.72
2023-03-29T08:06:17.257Z,10.92
2023-03-29T08:08:44.406Z,10.99
2023-03-29T08:11:15.455Z,11.19
2023-03-29T08:14:01.008Z,11.25
2023-03-29T08:16:49.894Z,11.29
2023-03-29T08:19:17.790Z,11.34
2023-03-29T08:21:54.199Z,11.38
2023-03-29T08:24:23.988Z,11.57
2023-03-29T08:26:59.350Z,11.80
2023-03-29T08:29:26.369Z,11.99
2023-03-29T08:31:56.558Z,12.20
2023-03-29T08:34:23.930Z,12.33
2023-03-29T08:37:11.211Z,12.49
2023-03-29T08:39:43.168Z,12.62
2023-03-29T08:42:43.139Z,12.77
2023-03-29T08:45:14.977Z,12.80
2023-03-29T08:47:52.900Z,12.76
2023-03-29T08:50:21.266Z,12.73
2023-03-29T08:52:57.937Z,12.60
2023-03-29T08:55:49.046Z,12.58
2023-03-29T08:58:33.261Z,12.65
2023-03-29T09:01:01.851Z,12.71
2023-03-29T09:03:40.745Z,12.82
2023-03-29T09:06:13.848Z,12.92
2023-03-29T09:08:44.531Z,12.89
2023-03-29T09:11:14.524Z,12.93
2023-03-29T09:13:50.485Z,13.15
2023-03-29T09:16:33.418Z,13.30
2023-03-29T09:19:27.906Z,13.35
2023-03-29T09:22:16.268Z,13.45
2023-03-29T09:24:54.221Z,13.52
2023-03-29T09:27:41.542Z,13.47
2023-03-29T09:30:28.728Z,13.56
2023-03-29T09:33:04.948Z,13.41
2023-03-29T09:35:55.344Z,13.54
2023-03-29T09:38:22.516Z,13.70
2023-03-29T09:40:58.089Z,13.86
2023-03-29T09:43:34.853Z,14.08
2023-03-29T09:46:07.132Z,14.15
2023-03-29T09:48:38.031Z,14.17
2023-03-29T09:51:05.862Z,13.96
2023-03-29T09:53:32.787Z,14.03
2023-03-29T09:56:19.233Z,14.16
2023-03-29T09:58:51.717Z,14.31
2023-03-29T10:01:19.580Z,14.32
2023-03-29T10:03:51.772Z,14.42
2023-03-29T10:06:20.532Z,14.45
2023-03-29T10:08:56.920Z,14.35
2023-03-29T10:11:32.140Z,14.19
2023-03-29T10:14:05.288Z,14.22
2023-03-29T10:16:42.054Z,14.19
2023-03-29T10:19:50.601Z,14.38
2023-03-29T10:22:24.131Z,14.65
2023-03-29T10:24:52.443Z,14.45
2023-03-29T10:27:23.560Z,14.58
2023-03-29T10:29:51.092Z,14.62
2023-03-29T10:32:32.673Z,14.63
2023-03-29T10:35:12.312Z,14.57
2023-03-29T10:37:43.367Z,14.90
2023-03-29T10:40:32.005Z,15.06
2023-03-29T10:43:20.377Z,15.16
2023-03-29T10:45:52.063Z,15.27
2023-03-29T10:48:19.589Z,15.20
2023-03-29T10:50:53.177Z,15.37
2023-03-29T10:53:28.334Z,15.61
2023-03-29T10:56:07.912Z,15.69
2023-03-29T10:58:42.760Z,15.74
2023-03-29T11:01:17.624Z,15.84
2023-03-29T11:04:21.048Z,16.07
2023-03-29T11:07:25.581Z,16.48
2023-03-29T11:10:12.771Z,16.62
2023-03-29T11:12:50.114Z,16.98
2023-03-29T11:15:29.649Z,17.24
2023-03-29T11:18:28.106Z,17.30
2023-03-29T11:21:02.388Z,17.34
2023-03-29T11:23:54.210Z,17.62
2023-03-29T11:26:25.054Z,17.89
2023-03-29T11:29:03.080Z,18.29
2023-03-29T11:32:26.109Z,18.71
2023-03-29T11:35:28.351Z,19.26
2023-03-29T11:37:57.352Z,19.44
2023-03-29T11:40:45.478Z,19.53
2023-03-29T11:43:19.154Z,19.64
2023-03-29T11:45:50.782Z,19.87
2023-03-29T11:48:22.483Z,20.61
2023-03-29T11:51:17.983Z,21.43
2023-03-29T11:54:23.009Z,21.67
2023-03-29T11:56:56.473Z,20.45
2023-03-29T11:59:29.006Z,20.59
2023-03-29T12:02:02.459Z,20.80
2023-03-29T12:04:32.922Z,20.86
2023-03-29T12:07:14.156Z,20.97
2023-03-29T12:09:54.830Z,21.21
2023-03-29T12:12:43.759Z,21.04
2023-03-29T12:15:20.429Z,20.91
2023-03-29T12:17:55.325Z,20.63
2023-03-29T12:20:27.196Z,20.97
2023-03-29T12:22:56.926Z,20.98
2023-03-29T12:25:58.167Z,20.67
2023-03-29T12:28:46.916Z,20.43
2023-03-29T12:31:31.720Z,20.21
2023-03-29T12:34:04.989Z,20.00
2023-03-29T12:37:00.883Z,19.56
2023-03-29T12:39:45.700Z,19.65
2023-03-29T12:42:31.228Z,18.62
2023-03-29T12:45:32.864Z,18.73
2023-03-29T12:48:00.474Z,18.39
2023-03-29T12:50:35.846Z,18.75
2023-03-29T12:53:13.719Z,18.57
2023-03-29T12:55:43.743Z,18.38
2023-03-29T12:58:26.169Z,18.43
2023-03-29T13:01:06.108Z,18.41
2023-03-29T13:04:01.523Z,18.69
2023-03-29T13:06:33.030Z,18.64
2023-03-29T13:09:00.827Z,18.83
2023-03-29T13:11:32.733Z,18.80
2023-03-29T13:14:02.211Z,18.51
2023-03-29T13:16:35.309Z,18.31
2023-03-29T13:19:06.789Z,18.78
2023-03-29T13:21:41.434Z,18.74
2023-03-29T13:24:24.776Z,18.25
2023-03-29T13:27:27.206Z,18.57
2023-03-29T13:30:00.535Z,18.51
2023-03-29T13:32:41.323Z,18.17
2023-03-29T13:35:51.933Z,18.12
2023-03-29T13:38:26.549Z,17.90
2023-03-29T13:40:53.239Z,17.66
2023-03-29T13:43:19.946Z,16.95
2023-03-29T13:45:58.860Z,16.49
2023-03-29T13:48:29.872Z,16.34
2023-03-29T13:51:16.553Z,16.21
2023-03-29T13:53:50.933Z,16.19
2023-03-29T13:56:23.431Z,16.54
2023-03-29T13:58:53.039Z,16.62
2023-03-29T14:01:28.385Z,16.52
2023-03-29T14:03:56.264Z,16.57
2023-03-29T14:06:30.047Z,16.57
2023-03-29T14:08:59.397Z,16.26
2023-03-29T14:11:29.039Z,16.02
2023-03-29T14:14:00.561Z,16.23
2023-03-29T14:16:28.569Z,16.30
2023-03-29T14:18:58.926Z,16.04
2023-03-29T14:21:25.968Z,16.02
2023-03-29T14:24:00.039Z,15.65
2023-03-29T14:26:31.669Z,15.20
2023-03-29T14:29:01.462Z,15.16
2023-03-29T14:31:36.858Z,15.19
2023-03-29T14:34:05.204Z,15.01
2023-03-29T14:36:33.724Z,15.11
2023-03-29T14:39:18.390Z,15.10
2023-03-29T14:41:55.550Z,15.05
2023-03-29T14:44:25.184Z,15.05
2023-03-29T14:46:52.113Z,15.23
2023-03-29T14:49:21.122Z,14.91
2023-03-29T14:51:48.191Z,15.02
2023-03-29T14:54:18.319Z,15.03
2023-03-29T14:56:46.768Z,15.13
2023-03-29T14:59:22.955Z,15.51
2023-03-29T15:01:49.874Z,15.64
2023-03-29T15:04:16.870Z,15.78
2023-03-29T15:06:45.045Z,16.00
2023-03-29T15:09:18.251Z,15.96
2023-03-29T15:11:52.076Z,16.10
2023-03-29T15:14:19.629Z,16.21
2023-03-29T15:16:47.934Z,16.23
2023-03-29T15:19:17.918Z,16.24
2023-03-29T15:21:45.503Z,16.06
2023-03-29T15:24:30.587Z,15.99
2023-03-29T15:27:17.608Z,15.97
2023-03-29T15:29:47.101Z,16.11
2023-03-29T15:32:22.813Z,16.16
2023-03-29T15:34:59.744Z,16.20
2023-03-29T15:37:26.858Z,16.17
2023-03-29T15:39:53.685Z,16.22
2023-03-29T15:42:21.236Z,16.25
2023-03-29T15:44:48.120Z,16.27
2023-03-29T15:47:15.215Z,16.35
2023-03-29T15:49:42.374Z,16.42
2023-03-29T15:52:09.168Z,16.47
2023-03-29T15:54:37.341Z,16.53
2023-03-29T15:57:07.446Z,16.53
2023-03-29T15:59:35.011Z,16.56
2023-03-29T16:02:02.312Z,16.55
2023-03-29T16:04:29.142Z,16.50
2023-03-29T16:06:56.152Z,16.42
2023-03-29T16:09:23.738Z,16.16
2023-03-29T16:11:54.492Z,16.07
2023-03-29T16:14:30.315Z,16.10
2023-03-29T16:17:01.485Z,16.06
2023-03-29T16:19:37.817Z,16.11
2023-03-29T16:22:10.238Z,16.02
2023-03-29T16:24:45.946Z,15.94
2023-03-29T16:27:13.166Z,15.93
2023-03-29T16:29:40.757Z,15.87
2023-03-29T16:32:11.165Z,15.87
2023-03-29T16:34:39.150Z,15.88
2023-03-29T16:37:06.227Z,15.82
2023-03-29T16:39:32.991Z,15.78
2023-03-29T16:41:59.916Z,15.71
2023-03-29T16:44:28.081Z,15.62
2023-03-29T16:46:58.369Z,15.55
2023-03-29T16:49:25.321Z,15.45
2023-03-29T16:51:52.226Z,15.42
2023-03-29T16:54:19.217Z,15.30
2023-03-29T16:56:47.307Z,15.29
2023-03-29T16:59:14.184Z,15.15
2023-03-29T17:01:41.045Z,15.13
2023-03-29T17:04:08.852Z,15.07
2023-03-29T17:06:36.345Z,15.07
2023-03-29T17:09:03.523Z,15.00
2023-03-29T17:11:30.505Z,15.01
2023-03-29T17:13:57.313Z,14.96
2023-03-29T17:16:24.275Z,14.91
2023-03-29T17:18:51.083Z,14.80
2023-03-29T17:21:17.955Z,14.85
2023-03-29T17:23:44.707Z,14.73
2023-03-29T17:26:12.110Z,14.75
2023-03-29T17:28:39.465Z,14.67
2023-03-29T17:31:10.117Z,14.60
2023-03-29T17:33:37.095Z,14.50
2023-03-29T17:36:05.330Z,14.38
2023-03-29T17:38:34.362Z,14.24
2023-03-29T17:41:01.821Z,14.16
2023-03-29T17:43:28.637Z,14.01
2023-03-29T17:45:55.780Z,13.98
2023-03-29T17:48:23.849Z,13.92
2023-03-29T17:50:50.824Z,13.88
2023-03-29T17:53:17.897Z,13.67
2023-03-29T17:55:44.638Z,13.61
2023-03-29T17:58:11.451Z,13.60
2023-03-29T18:00:38.255Z,13.51
2023-03-29T18:03:05.088Z,13.49
2023-03-29T18:05:31.817Z,13.28
2023-03-29T18:07:58.584Z,13.21
2023-03-29T18:10:28.210Z,13.22
2023-03-29T18:12:55.119Z,13.17
2023-03-29T18:15:21.959Z,13.18
2023-03-29T18:17:48.744Z,13.20
2023-03-29T18:20:16.394Z,13.28
2023-03-29T18:22:44.215Z,13.26
2023-03-29T18:25:11.433Z,13.26
2023-03-29T18:27:39.241Z,13.27
2023-03-29T18:30:08.853Z,13.29
2023-03-29T18:32:36.618Z,13.28
2023-03-29T18:35:03.860Z,13.24
2023-03-29T18:37:30.676Z,13.22
2023-03-29T18:39:57.570Z,13.21
2023-03-29T18:42:24.398Z,13.18
2023-03-29T18:44:51.458Z,13.18
2023-03-29T18:47:18.581Z,13.17
2023-03-29T18:49:45.795Z,13.18
2023-03-29T18:52:12.745Z,13.19
2023-03-29T18:54:39.546Z,13.11
2023-03-29T18:57:06.545Z,13.04
2023-03-29T18:59:36.031Z,13.06
2023-03-29T19:02:03.577Z,13.13
2023-03-29T19:04:30.401Z,13.09
2023-03-29T19:06:57.261Z,13.06
2023-03-29T19:09:24.016Z,12.90
2023-03-29T19:11:50.891Z,12.97
2023-03-29T19:14:17.798Z,12.93
2023-03-29T19:16:44.545Z,12.86
2023-03-29T19:19:12.973Z,12.85
2023-03-29T19:21:39.792Z,12.88
2023-03-29T19:24:07.919Z,12.89
2023-03-29T19:26:34.673Z,12.81
2023-03-29T19:29:01.404Z,12.80
2023-03-29T19:31:28.408Z,12.82
2023-03-29T19:33:55.238Z,12.79
2023-03-29T19:36:22.366Z,12.82
2023-03-29T19:38:49.264Z,12.81
2023-03-29T19:41:16.134Z,12.77
2023-03-29T19:43:42.864Z,12.85
2023-03-29T19:46:12.378Z,12.83
2023-03-29T19:48:39.933Z,12.89
2023-03-29T19:51:06.788Z,12.84
2023-03-29T19:53:35.839Z,12.86
2023-03-29T19:56:06.633Z,12.86
2023-03-29T19:58:33.867Z,12.86
2023-03-29T20:01:00.742Z,12.86
2023-03-29T20:03:28.512Z,12.83
2023-03-29T20:05:56.709Z,12.75
2023-03-29T20:08:24.983Z,12.76
2023-03-29T20:11:10.475Z,12.62
2023-03-29T20:13:39.325Z,12.52
2023-03-29T20:16:14.345Z,12.55
2023-03-29T20:18:44.906Z,12.56
2023-03-29T20:21:17.029Z,12.62
2023-03-29T20:23:44.519Z,12.61
2023-03-29T20:26:11.736Z,12.61
2023-03-29T20:28:38.575Z,12.68
2023-03-29T20:31:07.031Z,12.68
2023-03-29T20:33:33.808Z,12.69
2023-03-29T20:36:00.783Z,12.77
2023-03-29T20:38:27.635Z,12.76
2023-03-29T20:40:55.476Z,12.68
2023-03-29T20:43:22.393Z,12.72
2023-03-29T20:45:54.031Z,12.82
2023-03-29T20:48:30.438Z,12.82
2023-03-29T20:50:57.917Z,12.83
2023-03-29T20:53:25.313Z,12.80
2023-03-29T20:55:52.117Z,12.79
2023-03-29T20:58:18.940Z,12.85
2023-03-29T21:00:47.335Z,12.92
2023-03-29T21:03:14.266Z,12.99
2023-03-29T21:05:41.015Z,13.00
2023-03-29T21:08:08.617Z,12.96
2023-03-29T21:10:36.690Z,13.09
2023-03-29T21:13:03.430Z,13.08
2023-03-29T21:15:31.210Z,13.15
2023-03-29T21:17:58.270Z,13.17
2023-03-29T21:20:25.242Z,13.22
2023-03-29T21:22:51.997Z,13.24
2023-03-29T21:25:18.963Z,13.28
2023-03-29T21:27:45.875Z,13.36
2023-03-29T21:30:13.178Z,13.41
2023-03-29T21:32:39.961Z,13.42
2023-03-29T21:35:07.287Z,13.45
2023-03-29T21:37:34.054Z,13.42
2023-03-29T21:40:00.848Z,13.44
2023-03-29T21:42:27.572Z,13.41
2023-03-29T21:44:54.314Z,13.46
2023-03-29T21:47:21.101Z,13.42
2023-03-29T21:49:47.852Z,13.53
2023-03-29T21:52:14.734Z,13.61
2023-03-29T21:54:41.458Z,13.60
2023-03-29T21:57:08.381Z,13.48
2023-03-29T21:59:35.496Z,13.49
2023-03-29T22:02:02.534Z,13.60
2023-03-29T22:04:36.900Z,13.68
2023-03-29T22:07:04.906Z,13.72
2023-03-29T22:09:33.291Z,13.87
2023-03-29T22:12:01.667Z,13.93
2023-03-29T22:14:31.315Z,13.84
2023-03-29T22:16:58.348Z,13.87
2023-03-29T22:19:25.233Z,13.93
2023-03-29T22:21:51.973Z,13.92
2023-03-29T22:24:19.133Z,13.97
2023-03-29T22:26:46.234Z,13.98
2023-03-29T22:29:13.031Z,13.91
2023-03-29T22:31:39.839Z,13.93
2023-03-29T22:34:06.877Z,13.95
2023-03-29T22:36:34.677Z,13.87
2023-03-29T22:39:01.770Z,13.88
2023-03-29T22:41:28.950Z,13.87
2023-03-29T22:43:57.777Z,13.78
2023-03-29T22:46:24.558Z,13.73
2023-03-29T22:48:51.452Z,13.72
2023-03-29T22:51:18.903Z,13.68
2023-03-29T22:53:47.292Z,13.62
2023-03-29T22:56:15.657Z,13.57
2023-03-29T22:58:42.975Z,13.60
2023-03-29T23:01:09.763Z,13.64
2023-03-29T23:03:37.012Z,13.65
2023-03-29T23:06:04.388Z,13.66
2023-03-29T23:08:32.677Z,13.61
2023-03-29T23:10:59.825Z,13.55
2023-03-29T23:13:29.302Z,13.53
2023-03-29T23:15:59.220Z,13.56
2023-03-29T23:18:27.054Z,13.55
2023-03-29T23:20:55.690Z,13.62
2023-03-29T23:23:23.567Z,13.64
2023-03-29T23:25:51.843Z,13.72
2023-03-29T23:28:21.895Z,13.79
2023-03-29T23:31:00.550Z,13.82
2023-03-29T23:33:28.814Z,13.86
2023-03-29T23:35:55.676Z,14.02
2023-03-29T23:38:23.238Z,13.98
2023-03-29T23:40:59.174Z,14.04
2023-03-29T23:43:33.140Z,14.06
2023-03-29T23:46:01.774Z,14.04
2023-03-29T23:48:28.760Z,14.17
2023-03-29T23:50:58.613Z,14.34
2023-03-29T23:53:28.872Z,14.52
2023-03-29T23:56:05.626Z,14.63
2023-03-29T23:58:34.652Z,14.75
